sensor_id;sensor_type;location;lat;lon;timestamp;temperature;humidity
78479;SHT31;67769;51.972;5.668;2023-07-16T00:01:07;22.2;50.3
78479;SHT31;67769;51.972;5.668;2023-07-16T00:03:36;22.2;49.5
78479;SHT31;67769;51.972;5.668;2023-07-16T00:06:06;22.1;49.2
78479;SHT31;67769;51.972;5.668;2023-07-16T00:08:35;22.1;49.5
78479;SHT31;67769;51.972;5.668;2023-07-16T00:11:05;22.1;48.5
78479;SHT31;67769;51.972;5.668;2023-07-16T00:13:35;22.1;49.1
78479;SHT31;67769;51.972;5.668;2023-07-16T00:16:05;22.1;48.5
78479;SHT31;67769;51.972;5.668;2023-07-16T00:18:34;22.1;48.6
78479;SHT31;67769;51.972;5.668;2023-07-16T00:21:04;22.1;49.2
78479;SHT31;67769;51.972;5.668;2023-07-16T00:23:34;22.1;49.9
78479;SHT31;67769;51.972;5.668;2023-07-16T00:26:03;22.1;50.2
78479;SHT31;67769;51.972;5.668;2023-07-16T00:28:33;22.1;50.1
78479;SHT31;67769;51.972;5.668;2023-07-16T00:31:02;22.1;49.8
78479;SHT31;67769;51.972;5.668;2023-07-16T00:33:32;22.1;49.2
78479;SHT31;67769;51.972;5.668;2023-07-16T00:36:02;22.1;49.3
78479;SHT31;67769;51.972;5.668;2023-07-16T00:38:33;22.0;49.6
78479;SHT31;67769;51.972;5.668;2023-07-16T00:41:03;22.0;50.6
78479;SHT31;67769;51.972;5.668;2023-07-16T00:43:32;22.0;51.0
78479;SHT31;67769;51.972;5.668;2023-07-16T00:46:02;21.9;51.5
78479;SHT31;67769;51.972;5.668;2023-07-16T00:48:32;21.9;52.3
78479;SHT31;67769;51.972;5.668;2023-07-16T00:51:02;21.8;52.7
78479;SHT31;67769;51.972;5.668;2023-07-16T00:53:33;21.8;53.2
78479;SHT31;67769;51.972;5.668;2023-07-16T00:56:05;21.7;53.9
78479;SHT31;67769;51.972;5.668;2023-07-16T00:58:35;21.6;54.4
78479;SHT31;67769;51.972;5.668;2023-07-16T01:01:04;21.6;54.0
78479;SHT31;67769;51.972;5.668;2023-07-16T01:03:34;21.5;54.3
78479;SHT31;67769;51.972;5.668;2023-07-16T01:06:13;21.5;54.0
78479;SHT31;67769;51.972;5.668;2023-07-16T01:08:52;21.5;53.5
78479;SHT31;67769;51.972;5.668;2023-07-16T01:11:24;21.5;54.0
78479;SHT31;67769;51.972;5.668;2023-07-16T01:13:58;21.5;53.5
78479;SHT31;67769;51.972;5.668;2023-07-16T01:16:28;21.5;53.1
78479;SHT31;67769;51.972;5.668;2023-07-16T01:18:58;21.4;52.9
78479;SHT31;67769;51.972;5.668;2023-07-16T01:21:33;21.4;53.4
78479;SHT31;67769;51.972;5.668;2023-07-16T01:24:23;21.4;52.9
78479;SHT31;67769;51.972;5.668;2023-07-16T01:27:17;21.4;52.7
78479;SHT31;67769;51.972;5.668;2023-07-16T01:29:49;21.3;52.9
78479;SHT31;67769;51.972;5.668;2023-07-16T01:32:21;21.3;52.5
78479;SHT31;67769;51.972;5.668;2023-07-16T01:34:52;21.3;53.2
78479;SHT31;67769;51.972;5.668;2023-07-16T01:37:23;21.3;52.7
78479;SHT31;67769;51.972;5.668;2023-07-16T01:39:55;21.2;52.8
78479;SHT31;67769;51.972;5.668;2023-07-16T01:42:25;21.2;53.3
78479;SHT31;67769;51.972;5.668;2023-07-16T01:44:55;21.2;53.7
78479;SHT31;67769;51.972;5.668;2023-07-16T01:47:34;21.1;53.7
78479;SHT31;67769;51.972;5.668;2023-07-16T01:50:07;21.1;53.7
78479;SHT31;67769;51.972;5.668;2023-07-16T01:52:37;21.1;53.8
78479;SHT31;67769;51.972;5.668;2023-07-16T01:55:07;21.1;53.7
78479;SHT31;67769;51.972;5.668;2023-07-16T01:57:37;21.0;54.0
78479;SHT31;67769;51.972;5.668;2023-07-16T02:00:07;21.0;54.0
78479;SHT31;67769;51.972;5.668;2023-07-16T02:02:37;21.0;53.9
78479;SHT31;67769;51.972;5.668;2023-07-16T02:05:10;20.9;54.3
78479;SHT31;67769;51.972;5.668;2023-07-16T02:07:39;20.9;53.9
78479;SHT31;67769;51.972;5.668;2023-07-16T02:10:09;20.9;53.9
78479;SHT31;67769;51.972;5.668;2023-07-16T02:12:39;20.8;54.1
78479;SHT31;67769;51.972;5.668;2023-07-16T02:15:09;20.8;54.1
78479;SHT31;67769;51.972;5.668;2023-07-16T02:17:39;20.8;54.3
78479;SHT31;67769;51.972;5.668;2023-07-16T02:20:09;20.7;54.1
78479;SHT31;67769;51.972;5.668;2023-07-16T02:22:39;20.7;54.1
78479;SHT31;67769;51.972;5.668;2023-07-16T02:25:09;20.7;54.2
78479;SHT31;67769;51.972;5.668;2023-07-16T02:27:39;20.6;54.1
78479;SHT31;67769;51.972;5.668;2023-07-16T02:30:09;20.6;54.4
78479;SHT31;67769;51.972;5.668;2023-07-16T02:32:39;20.6;54.8
78479;SHT31;67769;51.972;5.668;2023-07-16T02:35:09;20.5;54.6
78479;SHT31;67769;51.972;5.668;2023-07-16T02:37:39;20.5;54.2
78479;SHT31;67769;51.972;5.668;2023-07-16T02:40:09;20.5;54.5
78479;SHT31;67769;51.972;5.668;2023-07-16T02:42:38;20.5;54.6
78479;SHT31;67769;51.972;5.668;2023-07-16T02:45:08;20.4;54.7
78479;SHT31;67769;51.972;5.668;2023-07-16T02:47:38;20.4;55.0
78479;SHT31;67769;51.972;5.668;2023-07-16T02:50:09;20.4;55.4
78479;SHT31;67769;51.972;5.668;2023-07-16T02:52:38;20.4;55.5
78479;SHT31;67769;51.972;5.668;2023-07-16T02:55:08;20.3;55.2
78479;SHT31;67769;51.972;5.668;2023-07-16T02:57:38;20.3;56.0
78479;SHT31;67769;51.972;5.668;2023-07-16T03:00:08;20.3;55.8
78479;SHT31;67769;51.972;5.668;2023-07-16T03:02:38;20.3;55.7
78479;SHT31;67769;51.972;5.668;2023-07-16T03:05:08;20.3;56.0
78479;SHT31;67769;51.972;5.668;2023-07-16T03:07:38;20.3;56.1
78479;SHT31;67769;51.972;5.668;2023-07-16T03:10:08;20.3;56.1
78479;SHT31;67769;51.972;5.668;2023-07-16T03:12:38;20.2;56.7
78479;SHT31;67769;51.972;5.668;2023-07-16T03:15:08;20.2;56.8
78479;SHT31;67769;51.972;5.668;2023-07-16T03:17:38;20.2;56.8
78479;SHT31;67769;51.972;5.668;2023-07-16T03:20:08;20.2;57.3
78479;SHT31;67769;51.972;5.668;2023-07-16T03:22:39;20.2;57.8
78479;SHT31;67769;51.972;5.668;2023-07-16T03:25:09;20.2;58.3
78479;SHT31;67769;51.972;5.668;2023-07-16T03:27:38;20.1;58.5
78479;SHT31;67769;51.972;5.668;2023-07-16T03:30:09;20.1;58.5
78479;SHT31;67769;51.972;5.668;2023-07-16T03:32:38;20.0;58.0
78479;SHT31;67769;51.972;5.668;2023-07-16T03:35:11;20.0;58.1
78479;SHT31;67769;51.972;5.668;2023-07-16T03:37:40;20.0;57.9
78479;SHT31;67769;51.972;5.668;2023-07-16T03:40:18;19.9;57.9
78479;SHT31;67769;51.972;5.668;2023-07-16T03:42:48;19.9;58.1
78479;SHT31;67769;51.972;5.668;2023-07-16T03:45:18;19.8;57.9
78479;SHT31;67769;51.972;5.668;2023-07-16T03:47:47;19.8;57.4
78479;SHT31;67769;51.972;5.668;2023-07-16T03:50:17;19.8;57.5
78479;SHT31;67769;51.972;5.668;2023-07-16T03:52:47;19.8;57.2
78479;SHT31;67769;51.972;5.668;2023-07-16T03:55:17;19.8;57.5
78479;SHT31;67769;51.972;5.668;2023-07-16T03:57:49;19.8;56.7
78479;SHT31;67769;51.972;5.668;2023-07-16T04:00:18;19.8;56.5
78479;SHT31;67769;51.972;5.668;2023-07-16T04:02:48;19.8;56.8
78479;SHT31;67769;51.972;5.668;2023-07-16T04:05:18;19.7;56.9
78479;SHT31;67769;51.972;5.668;2023-07-16T04:07:47;19.7;56.5
78479;SHT31;67769;51.972;5.668;2023-07-16T04:10:17;19.7;56.8
78479;SHT31;67769;51.972;5.668;2023-07-16T04:12:47;19.7;57.1
78479;SHT31;67769;51.972;5.668;2023-07-16T04:15:16;19.7;57.0
78479;SHT31;67769;51.972;5.668;2023-07-16T04:17:46;19.7;57.6
78479;SHT31;67769;51.972;5.668;2023-07-16T04:20:15;19.8;57.3
78479;SHT31;67769;51.972;5.668;2023-07-16T04:22:45;19.8;57.5
78479;SHT31;67769;51.972;5.668;2023-07-16T04:25:15;19.8;58.0
78479;SHT31;67769;51.972;5.668;2023-07-16T04:27:48;19.8;58.2
78479;SHT31;67769;51.972;5.668;2023-07-16T04:30:19;19.8;58.3
78479;SHT31;67769;51.972;5.668;2023-07-16T04:32:49;19.8;58.2
78479;SHT31;67769;51.972;5.668;2023-07-16T04:35:18;19.8;58.4
78479;SHT31;67769;51.972;5.668;2023-07-16T04:37:48;19.8;58.2
78479;SHT31;67769;51.972;5.668;2023-07-16T04:40:18;19.8;58.4
78479;SHT31;67769;51.972;5.668;2023-07-16T04:42:47;19.9;58.5
78479;SHT31;67769;51.972;5.668;2023-07-16T04:45:17;19.9;57.6
78479;SHT31;67769;51.972;5.668;2023-07-16T04:47:47;19.9;57.6
78479;SHT31;67769;51.972;5.668;2023-07-16T04:50:18;20.0;56.7
78479;SHT31;67769;51.972;5.668;2023-07-16T04:52:48;20.0;56.9
78479;SHT31;67769;51.972;5.668;2023-07-16T04:55:17;20.0;56.0
78479;SHT31;67769;51.972;5.668;2023-07-16T04:57:47;20.1;55.7
78479;SHT31;67769;51.972;5.668;2023-07-16T05:00:21;20.1;55.5
78479;SHT31;67769;51.972;5.668;2023-07-16T05:02:50;20.1;56.4
78479;SHT31;67769;51.972;5.668;2023-07-16T05:05:20;20.1;55.6
78479;SHT31;67769;51.972;5.668;2023-07-16T05:07:49;20.2;55.0
78479;SHT31;67769;51.972;5.668;2023-07-16T05:10:19;20.3;55.3
78479;SHT31;67769;51.972;5.668;2023-07-16T05:12:49;20.3;54.9
78479;SHT31;67769;51.972;5.668;2023-07-16T05:15:19;20.4;54.2
78479;SHT31;67769;51.972;5.668;2023-07-16T05:17:49;20.4;53.4
78479;SHT31;67769;51.972;5.668;2023-07-16T05:20:19;20.5;53.8
78479;SHT31;67769;51.972;5.668;2023-07-16T05:22:48;20.5;53.8
78479;SHT31;67769;51.972;5.668;2023-07-16T05:25:20;20.5;53.3
78479;SHT31;67769;51.972;5.668;2023-07-16T05:27:49;20.5;53.2
78479;SHT31;67769;51.972;5.668;2023-07-16T05:30:19;20.6;53.0
78479;SHT31;67769;51.972;5.668;2023-07-16T05:32:49;20.6;53.2
78479;SHT31;67769;51.972;5.668;2023-07-16T05:35:18;20.6;52.8
78479;SHT31;67769;51.972;5.668;2023-07-16T05:37:48;20.7;52.4
78479;SHT31;67769;51.972;5.668;2023-07-16T05:40:17;20.7;52.7
78479;SHT31;67769;51.972;5.668;2023-07-16T05:42:47;20.8;53.3
78479;SHT31;67769;51.972;5.668;2023-07-16T05:45:17;21.0;53.1
78479;SHT31;67769;51.972;5.668;2023-07-16T05:47:46;21.2;51.6
78479;SHT31;67769;51.972;5.668;2023-07-16T05:50:16;21.5;51.8
78479;SHT31;67769;51.972;5.668;2023-07-16T05:52:46;21.8;50.6
78479;SHT31;67769;51.972;5.668;2023-07-16T05:55:17;22.1;49.3
78479;SHT31;67769;51.972;5.668;2023-07-16T05:57:46;22.3;48.7
78479;SHT31;67769;51.972;5.668;2023-07-16T06:00:18;22.5;47.9
78479;SHT31;67769;51.972;5.668;2023-07-16T06:02:48;22.7;47.7
78479;SHT31;67769;51.972;5.668;2023-07-16T06:05:18;22.9;47.3
78479;SHT31;67769;51.972;5.668;2023-07-16T06:07:47;23.1;47.3
78479;SHT31;67769;51.972;5.668;2023-07-16T06:10:17;23.2;46.6
78479;SHT31;67769;51.972;5.668;2023-07-16T06:12:47;23.4;46.0
78479;SHT31;67769;51.972;5.668;2023-07-16T06:15:16;23.6;45.5
78479;SHT31;67769;51.972;5.668;2023-07-16T06:17:46;23.7;44.9
78479;SHT31;67769;51.972;5.668;2023-07-16T06:20:16;23.8;45.4
78479;SHT31;67769;51.972;5.668;2023-07-16T06:22:46;23.9;44.8
78479;SHT31;67769;51.972;5.668;2023-07-16T06:25:15;24.0;44.5
78479;SHT31;67769;51.972;5.668;2023-07-16T06:27:47;24.1;44.5
78479;SHT31;67769;51.972;5.668;2023-07-16T06:30:17;24.2;44.8
78479;SHT31;67769;51.972;5.668;2023-07-16T06:32:47;24.3;44.7
78479;SHT31;67769;51.972;5.668;2023-07-16T06:35:17;24.4;44.5
78479;SHT31;67769;51.972;5.668;2023-07-16T06:37:46;24.5;44.2
78479;SHT31;67769;51.972;5.668;2023-07-16T06:40:16;24.6;43.4
78479;SHT31;67769;51.972;5.668;2023-07-16T06:42:46;24.7;43.7
78479;SHT31;67769;51.972;5.668;2023-07-16T06:45:16;24.9;44.1
78479;SHT31;67769;51.972;5.668;2023-07-16T06:47:47;25.0;42.6
78479;SHT31;67769;51.972;5.668;2023-07-16T06:50:17;25.1;43.5
78479;SHT31;67769;51.972;5.668;2023-07-16T06:52:47;25.2;42.5
78479;SHT31;67769;51.972;5.668;2023-07-16T06:55:16;25.3;42.9
78479;SHT31;67769;51.972;5.668;2023-07-16T06:57:46;25.4;42.6
78479;SHT31;67769;51.972;5.668;2023-07-16T07:00:16;25.5;42.4
78479;SHT31;67769;51.972;5.668;2023-07-16T07:02:46;25.7;42.1
78479;SHT31;67769;51.972;5.668;2023-07-16T07:05:16;25.8;42.0
78479;SHT31;67769;51.972;5.668;2023-07-16T07:07:45;25.9;41.7
78479;SHT31;67769;51.972;5.668;2023-07-16T07:10:15;26.0;41.5
78479;SHT31;67769;51.972;5.668;2023-07-16T07:12:45;26.1;41.9
78479;SHT31;67769;51.972;5.668;2023-07-16T07:15:15;26.2;41.2
78479;SHT31;67769;51.972;5.668;2023-07-16T07:17:44;26.2;41.3
78479;SHT31;67769;51.972;5.668;2023-07-16T07:20:16;26.3;40.9
78479;SHT31;67769;51.972;5.668;2023-07-16T07:22:46;26.3;40.7
78479;SHT31;67769;51.972;5.668;2023-07-16T07:25:15;26.4;40.9
78479;SHT31;67769;51.972;5.668;2023-07-16T07:27:45;26.4;40.8
78479;SHT31;67769;51.972;5.668;2023-07-16T07:30:15;26.4;40.4
78479;SHT31;67769;51.972;5.668;2023-07-16T07:32:47;26.5;40.8
78479;SHT31;67769;51.972;5.668;2023-07-16T07:35:17;26.5;40.2
78479;SHT31;67769;51.972;5.668;2023-07-16T07:37:47;26.5;41.1
78479;SHT31;67769;51.972;5.668;2023-07-16T07:40:18;26.5;41.0
78479;SHT31;67769;51.972;5.668;2023-07-16T07:42:48;26.6;40.5
78479;SHT31;67769;51.972;5.668;2023-07-16T07:45:18;26.6;40.9
78479;SHT31;67769;51.972;5.668;2023-07-16T07:47:48;26.6;40.7
78479;SHT31;67769;51.972;5.668;2023-07-16T07:50:18;26.6;39.9
78479;SHT31;67769;51.972;5.668;2023-07-16T07:52:47;26.5;40.3
78479;SHT31;67769;51.972;5.668;2023-07-16T07:55:17;26.4;40.6
78479;SHT31;67769;51.972;5.668;2023-07-16T07:57:47;26.4;41.2
78479;SHT31;67769;51.972;5.668;2023-07-16T08:00:16;26.3;42.5
78479;SHT31;67769;51.972;5.668;2023-07-16T08:02:48;26.3;41.5
78479;SHT31;67769;51.972;5.668;2023-07-16T08:05:20;26.3;41.6
78479;SHT31;67769;51.972;5.668;2023-07-16T08:07:49;26.3;41.7
78479;SHT31;67769;51.972;5.668;2023-07-16T08:10:20;26.2;40.6
78479;SHT31;67769;51.972;5.668;2023-07-16T08:12:49;26.2;41.5
78479;SHT31;67769;51.972;5.668;2023-07-16T08:15:19;26.1;41.1
78479;SHT31;67769;51.972;5.668;2023-07-16T08:17:49;26.1;41.3
78479;SHT31;67769;51.972;5.668;2023-07-16T08:20:19;26.1;41.2
78479;SHT31;67769;51.972;5.668;2023-07-16T08:22:48;26.0;42.4
78479;SHT31;67769;51.972;5.668;2023-07-16T08:25:20;26.0;42.4
78479;SHT31;67769;51.972;5.668;2023-07-16T08:27:49;26.1;42.8
78479;SHT31;67769;51.972;5.668;2023-07-16T08:30:21;26.1;42.1
78479;SHT31;67769;51.972;5.668;2023-07-16T08:32:51;26.1;41.7
78479;SHT31;67769;51.972;5.668;2023-07-16T08:35:22;26.2;41.3
78479;SHT31;67769;51.972;5.668;2023-07-16T08:37:53;26.2;41.5
78479;SHT31;67769;51.972;5.668;2023-07-16T08:40:23;26.3;41.3
78479;SHT31;67769;51.972;5.668;2023-07-16T08:42:56;26.3;41.7
78479;SHT31;67769;51.972;5.668;2023-07-16T08:45:28;26.3;41.0
78479;SHT31;67769;51.972;5.668;2023-07-16T08:47:58;26.3;41.6
78479;SHT31;67769;51.972;5.668;2023-07-16T08:50:28;26.3;40.9
78479;SHT31;67769;51.972;5.668;2023-07-16T08:53:00;26.3;40.4
78479;SHT31;67769;51.972;5.668;2023-07-16T08:55:31;26.2;41.3
78479;SHT31;67769;51.972;5.668;2023-07-16T08:58:01;26.2;40.8
78479;SHT31;67769;51.972;5.668;2023-07-16T09:00:34;26.1;41.9
78479;SHT31;67769;51.972;5.668;2023-07-16T09:03:04;26.1;41.4
78479;SHT31;67769;51.972;5.668;2023-07-16T09:05:34;26.1;41.5
78479;SHT31;67769;51.972;5.668;2023-07-16T09:08:05;26.1;41.1
78479;SHT31;67769;51.972;5.668;2023-07-16T09:10:35;26.2;41.6
78479;SHT31;67769;51.972;5.668;2023-07-16T09:13:05;26.2;41.0
78479;SHT31;67769;51.972;5.668;2023-07-16T09:15:35;26.1;41.7
78479;SHT31;67769;51.972;5.668;2023-07-16T09:18:07;26.1;40.7
78479;SHT31;67769;51.972;5.668;2023-07-16T09:20:39;26.1;41.0
78479;SHT31;67769;51.972;5.668;2023-07-16T09:23:11;26.0;40.6
78479;SHT31;67769;51.972;5.668;2023-07-16T09:25:40;25.9;40.8
78479;SHT31;67769;51.972;5.668;2023-07-16T09:28:12;25.8;41.4
78479;SHT31;67769;51.972;5.668;2023-07-16T09:30:41;25.6;41.5
78479;SHT31;67769;51.972;5.668;2023-07-16T09:33:13;25.5;41.5
78479;SHT31;67769;51.972;5.668;2023-07-16T09:35:44;25.4;42.1
78479;SHT31;67769;51.972;5.668;2023-07-16T09:38:13;25.3;42.0
78479;SHT31;67769;51.972;5.668;2023-07-16T09:40:44;25.1;42.9
78479;SHT31;67769;51.972;5.668;2023-07-16T09:43:14;25.1;43.5
78479;SHT31;67769;51.972;5.668;2023-07-16T09:45:46;25.0;43.3
78479;SHT31;67769;51.972;5.668;2023-07-16T09:48:15;25.0;43.2
78479;SHT31;67769;51.972;5.668;2023-07-16T09:50:50;25.0;43.5
78479;SHT31;67769;51.972;5.668;2023-07-16T09:53:21;25.1;43.8
78479;SHT31;67769;51.972;5.668;2023-07-16T09:55:52;25.1;43.8
78479;SHT31;67769;51.972;5.668;2023-07-16T09:58:23;25.2;44.3
78479;SHT31;67769;51.972;5.668;2023-07-16T10:00:54;25.2;43.5
78479;SHT31;67769;51.972;5.668;2023-07-16T10:03:24;25.3;43.3
78479;SHT31;67769;51.972;5.668;2023-07-16T10:06:07;25.3;42.6
78479;SHT31;67769;51.972;5.668;2023-07-16T10:08:37;25.3;42.7
78479;SHT31;67769;51.972;5.668;2023-07-16T10:11:17;25.3;42.7
78479;SHT31;67769;51.972;5.668;2023-07-16T10:13:50;25.3;43.4
78479;SHT31;67769;51.972;5.668;2023-07-16T10:16:23;25.3;43.7
78479;SHT31;67769;51.972;5.668;2023-07-16T10:18:58;25.3;42.8
78479;SHT31;67769;51.972;5.668;2023-07-16T10:21:38;25.3;43.3
78479;SHT31;67769;51.972;5.668;2023-07-16T10:24:17;25.3;43.2
78479;SHT31;67769;51.972;5.668;2023-07-16T10:26:47;25.3;43.2
78479;SHT31;67769;51.972;5.668;2023-07-16T10:29:17;25.2;42.8
78479;SHT31;67769;51.972;5.668;2023-07-16T10:31:47;25.2;43.1
78479;SHT31;67769;51.972;5.668;2023-07-16T10:34:22;25.2;43.4
78479;SHT31;67769;51.972;5.668;2023-07-16T10:36:52;25.1;43.7
78479;SHT31;67769;51.972;5.668;2023-07-16T10:39:22;25.1;43.9
78479;SHT31;67769;51.972;5.668;2023-07-16T10:41:52;25.0;44.7
78479;SHT31;67769;51.972;5.668;2023-07-16T10:44:23;25.0;43.9
78479;SHT31;67769;51.972;5.668;2023-07-16T10:46:53;25.0;44.3
78479;SHT31;67769;51.972;5.668;2023-07-16T10:49:28;25.0;44.3
78479;SHT31;67769;51.972;5.668;2023-07-16T10:52:01;25.0;44.5
78479;SHT31;67769;51.972;5.668;2023-07-16T10:54:31;24.9;44.8
78479;SHT31;67769;51.972;5.668;2023-07-16T10:57:00;24.9;44.4
78479;SHT31;67769;51.972;5.668;2023-07-16T10:59:30;24.9;44.7
78479;SHT31;67769;51.972;5.668;2023-07-16T11:02:00;24.8;44.4
78479;SHT31;67769;51.972;5.668;2023-07-16T11:04:35;24.8;44.5
78479;SHT31;67769;51.972;5.668;2023-07-16T11:07:10;24.7;44.4
78479;SHT31;67769;51.972;5.668;2023-07-16T11:09:46;24.7;45.3
78479;SHT31;67769;51.972;5.668;2023-07-16T11:12:17;24.6;45.4
78479;SHT31;67769;51.972;5.668;2023-07-16T11:14:49;24.6;45.2
78479;SHT31;67769;51.972;5.668;2023-07-16T11:17:20;24.6;45.2
78479;SHT31;67769;51.972;5.668;2023-07-16T11:19:52;24.6;44.9
78479;SHT31;67769;51.972;5.668;2023-07-16T11:22:24;24.6;45.9
78479;SHT31;67769;51.972;5.668;2023-07-16T11:24:55;24.6;45.8
78479;SHT31;67769;51.972;5.668;2023-07-16T11:27:26;24.6;45.8
78479;SHT31;67769;51.972;5.668;2023-07-16T11:29:57;24.6;46.0
78479;SHT31;67769;51.972;5.668;2023-07-16T11:32:28;24.6;45.3
78479;SHT31;67769;51.972;5.668;2023-07-16T11:34:59;24.6;45.7
78479;SHT31;67769;51.972;5.668;2023-07-16T11:37:31;24.7;46.4
78479;SHT31;67769;51.972;5.668;2023-07-16T11:40:04;24.7;47.0
78479;SHT31;67769;51.972;5.668;2023-07-16T11:42:35;24.8;46.2
78479;SHT31;67769;51.972;5.668;2023-07-16T11:45:19;24.9;46.6
78479;SHT31;67769;51.972;5.668;2023-07-16T11:47:50;24.9;47.1
78479;SHT31;67769;51.972;5.668;2023-07-16T11:50:22;25.0;46.3
78479;SHT31;67769;51.972;5.668;2023-07-16T11:52:55;25.0;45.8
78479;SHT31;67769;51.972;5.668;2023-07-16T11:55:25;25.1;45.9
78479;SHT31;67769;51.972;5.668;2023-07-16T11:57:55;25.2;45.6
78479;SHT31;67769;51.972;5.668;2023-07-16T12:00:27;25.2;45.3
78479;SHT31;67769;51.972;5.668;2023-07-16T12:02:56;25.3;44.4
78479;SHT31;67769;51.972;5.668;2023-07-16T12:05:26;25.3;44.2
78479;SHT31;67769;51.972;5.668;2023-07-16T12:07:56;25.3;44.1
78479;SHT31;67769;51.972;5.668;2023-07-16T12:10:25;25.3;44.5
78479;SHT31;67769;51.972;5.668;2023-07-16T12:12:55;25.3;44.9
78479;SHT31;67769;51.972;5.668;2023-07-16T12:15:25;25.3;44.3
78479;SHT31;67769;51.972;5.668;2023-07-16T12:17:54;25.3;46.4
78479;SHT31;67769;51.972;5.668;2023-07-16T12:20:24;25.3;47.0
78479;SHT31;67769;51.972;5.668;2023-07-16T12:22:54;25.2;47.8
78479;SHT31;67769;51.972;5.668;2023-07-16T12:25:25;25.2;48.6
78479;SHT31;67769;51.972;5.668;2023-07-16T12:27:57;25.2;48.3
78479;SHT31;67769;51.972;5.668;2023-07-16T12:30:26;25.3;48.1
78479;SHT31;67769;51.972;5.668;2023-07-16T12:32:56;25.3;47.5
78479;SHT31;67769;51.972;5.668;2023-07-16T12:35:28;25.4;47.1
78479;SHT31;67769;51.972;5.668;2023-07-16T12:37:58;25.5;47.4
78479;SHT31;67769;51.972;5.668;2023-07-16T12:40:29;25.7;45.8
78479;SHT31;67769;51.972;5.668;2023-07-16T12:43:04;25.8;45.6
78479;SHT31;67769;51.972;5.668;2023-07-16T12:45:34;25.9;45.8
78479;SHT31;67769;51.972;5.668;2023-07-16T12:48:04;25.9;45.1
78479;SHT31;67769;51.972;5.668;2023-07-16T12:50:33;26.0;44.6
78479;SHT31;67769;51.972;5.668;2023-07-16T12:53:03;26.0;45.5
78479;SHT31;67769;51.972;5.668;2023-07-16T12:55:33;26.0;45.0
78479;SHT31;67769;51.972;5.668;2023-07-16T12:58:02;26.1;44.7
78479;SHT31;67769;51.972;5.668;2023-07-16T13:00:32;26.1;43.8
78479;SHT31;67769;51.972;5.668;2023-07-16T13:03:02;26.1;44.1
78479;SHT31;67769;51.972;5.668;2023-07-16T13:05:34;26.0;44.5
78479;SHT31;67769;51.972;5.668;2023-07-16T13:08:04;26.0;44.5
78479;SHT31;67769;51.972;5.668;2023-07-16T13:10:34;25.9;46.3
78479;SHT31;67769;51.972;5.668;2023-07-16T13:13:04;25.9;46.9
78479;SHT31;67769;51.972;5.668;2023-07-16T13:15:35;25.8;47.9
78479;SHT31;67769;51.972;5.668;2023-07-16T13:18:05;25.7;48.4
78479;SHT31;67769;51.972;5.668;2023-07-16T13:20:34;25.7;47.9
78479;SHT31;67769;51.972;5.668;2023-07-16T13:23:04;25.7;48.9
78479;SHT31;67769;51.972;5.668;2023-07-16T13:25:35;25.7;46.4
78479;SHT31;67769;51.972;5.668;2023-07-16T13:28:06;25.8;46.0
78479;SHT31;67769;51.972;5.668;2023-07-16T13:30:36;25.8;46.7
78479;SHT31;67769;51.972;5.668;2023-07-16T13:33:07;25.8;46.3
78479;SHT31;67769;51.972;5.668;2023-07-16T13:35:37;25.9;45.4
78479;SHT31;67769;51.972;5.668;2023-07-16T13:38:07;26.0;43.9
78479;SHT31;67769;51.972;5.668;2023-07-16T13:40:36;26.1;44.4
78479;SHT31;67769;51.972;5.668;2023-07-16T13:43:06;26.1;43.9
78479;SHT31;67769;51.972;5.668;2023-07-16T13:45:38;26.2;42.4
78479;SHT31;67769;51.972;5.668;2023-07-16T13:48:09;26.3;42.6
78479;SHT31;67769;51.972;5.668;2023-07-16T13:50:39;26.3;43.0
78479;SHT31;67769;51.972;5.668;2023-07-16T13:53:09;26.4;42.1
78479;SHT31;67769;51.972;5.668;2023-07-16T13:55:38;26.4;42.0
78479;SHT31;67769;51.972;5.668;2023-07-16T13:58:08;26.5;42.3
78479;SHT31;67769;51.972;5.668;2023-07-16T14:00:38;26.5;40.7
78479;SHT31;67769;51.972;5.668;2023-07-16T14:03:08;26.6;42.5
78479;SHT31;67769;51.972;5.668;2023-07-16T14:05:37;26.6;42.2
78479;SHT31;67769;51.972;5.668;2023-07-16T14:08:07;26.7;41.0
78479;SHT31;67769;51.972;5.668;2023-07-16T14:10:37;26.7;40.8
78479;SHT31;67769;51.972;5.668;2023-07-16T14:13:07;26.7;41.4
78479;SHT31;67769;51.972;5.668;2023-07-16T14:15:37;26.7;40.7
78479;SHT31;67769;51.972;5.668;2023-07-16T14:18:06;26.7;41.2
78479;SHT31;67769;51.972;5.668;2023-07-16T14:20:36;26.8;41.3
78479;SHT31;67769;51.972;5.668;2023-07-16T14:23:05;26.8;41.6
78479;SHT31;67769;51.972;5.668;2023-07-16T14:25:35;26.8;40.0
78479;SHT31;67769;51.972;5.668;2023-07-16T14:28:05;26.8;40.0
78479;SHT31;67769;51.972;5.668;2023-07-16T14:30:35;26.8;41.0
78479;SHT31;67769;51.972;5.668;2023-07-16T14:33:04;26.8;40.5
78479;SHT31;67769;51.972;5.668;2023-07-16T14:35:34;26.8;40.8
78479;SHT31;67769;51.972;5.668;2023-07-16T14:38:04;26.8;40.6
78479;SHT31;67769;51.972;5.668;2023-07-16T14:40:34;26.7;41.0
78479;SHT31;67769;51.972;5.668;2023-07-16T14:43:05;26.7;41.7
78479;SHT31;67769;51.972;5.668;2023-07-16T14:45:35;26.6;41.7
78479;SHT31;67769;51.972;5.668;2023-07-16T14:48:06;26.5;41.6
78479;SHT31;67769;51.972;5.668;2023-07-16T14:50:37;26.4;41.4
78479;SHT31;67769;51.972;5.668;2023-07-16T14:53:06;26.4;42.3
78479;SHT31;67769;51.972;5.668;2023-07-16T14:55:36;26.4;42.1
78479;SHT31;67769;51.972;5.668;2023-07-16T14:58:06;26.4;41.7
78479;SHT31;67769;51.972;5.668;2023-07-16T15:00:35;26.3;41.9
78479;SHT31;67769;51.972;5.668;2023-07-16T15:03:05;26.3;41.1
78479;SHT31;67769;51.972;5.668;2023-07-16T15:05:35;26.3;41.7
78479;SHT31;67769;51.972;5.668;2023-07-16T15:08:05;26.4;41.9
78479;SHT31;67769;51.972;5.668;2023-07-16T15:10:35;26.4;40.5
78479;SHT31;67769;51.972;5.668;2023-07-16T15:13:04;26.4;40.8
78479;SHT31;67769;51.972;5.668;2023-07-16T15:15:34;26.4;41.3
78479;SHT31;67769;51.972;5.668;2023-07-16T15:18:03;26.5;40.6
78479;SHT31;67769;51.972;5.668;2023-07-16T15:20:33;26.5;40.7
78479;SHT31;67769;51.972;5.668;2023-07-16T15:23:02;26.5;40.8
78479;SHT31;67769;51.972;5.668;2023-07-16T15:25:32;26.5;40.9
78479;SHT31;67769;51.972;5.668;2023-07-16T15:28:02;26.5;40.1
78479;SHT31;67769;51.972;5.668;2023-07-16T15:30:32;26.5;40.7
78479;SHT31;67769;51.972;5.668;2023-07-16T15:33:02;26.5;40.7
78479;SHT31;67769;51.972;5.668;2023-07-16T15:35:31;26.6;41.1
78479;SHT31;67769;51.972;5.668;2023-07-16T15:38:03;26.6;41.1
78479;SHT31;67769;51.972;5.668;2023-07-16T15:40:34;26.6;41.1
78479;SHT31;67769;51.972;5.668;2023-07-16T15:43:05;26.6;41.8
78479;SHT31;67769;51.972;5.668;2023-07-16T15:45:35;26.5;41.7
78479;SHT31;67769;51.972;5.668;2023-07-16T15:48:05;26.5;42.0
78479;SHT31;67769;51.972;5.668;2023-07-16T15:50:34;26.4;42.0
78479;SHT31;67769;51.972;5.668;2023-07-16T15:53:04;26.4;42.4
78479;SHT31;67769;51.972;5.668;2023-07-16T15:55:35;26.3;43.0
78479;SHT31;67769;51.972;5.668;2023-07-16T15:58:05;26.3;42.9
78479;SHT31;67769;51.972;5.668;2023-07-16T16:00:35;26.2;43.0
78479;SHT31;67769;51.972;5.668;2023-07-16T16:03:05;26.2;43.5
78479;SHT31;67769;51.972;5.668;2023-07-16T16:05:36;26.1;43.3
78479;SHT31;67769;51.972;5.668;2023-07-16T16:08:13;26.1;43.5
78479;SHT31;67769;51.972;5.668;2023-07-16T16:10:46;26.0;44.1
78479;SHT31;67769;51.972;5.668;2023-07-16T16:13:18;26.0;44.0
78479;SHT31;67769;51.972;5.668;2023-07-16T16:15:48;25.9;44.9
78479;SHT31;67769;51.972;5.668;2023-07-16T16:18:18;25.9;44.5
78479;SHT31;67769;51.972;5.668;2023-07-16T16:20:48;25.8;44.1
78479;SHT31;67769;51.972;5.668;2023-07-16T16:23:20;25.8;44.2